Time;durP1;ratioP1;P1;durP2;ratioP2;P2;SDS_P1;SDS_P2;PMS_P1;PMS_P2;Temp;Humidity;BMP_temperature;BMP_pressure;BME280_temperature;BME280_humidity;BME280_pressure;Samples;Min_cycle;Max_cycle;Signal;HPM_P1;HPM_P2
2023/06/08 00:01:35;;;;;;;;;;;;;;;23.70;48.38;101296.50;5005852;28;4254;-73
2023/06/08 00:04:05;;;;;;;;;;;;;;;23.70;48.48;101289.97;5013643;28;4090;-73
2023/06/08 00:06:33;;;;;;;;;;;;;;;23.70;48.40;101302.28;5004990;28;4334;-73
2023/06/08 00:09:04;;;;;;;;;;;;;;;23.70;48.46;101302.28;5004371;28;4056;-73
2023/06/08 00:11:31;;;;;;;;;;;;;;;23.71;48.56;101292.22;5004558;28;4163;-73
2023/06/08 00:13:58;;;;;;;;;;;;;;;23.70;48.39;101302.28;5003722;28;4104;-73
2023/06/08 00:16:24;;;;;;;;;;;;;;;23.70;48.29;101299.41;5006995;28;4203;-73
2023/06/08 00:18:56;;;;;;;;;;;;;;;23.70;48.39;101298.66;5002982;28;4159;-73
2023/06/08 00:21:23;;;;;;;;;;;;;;;23.69;48.38;101295.03;5009057;28;4198;-73
2023/06/08 00:23:50;;;;;;;;;;;;;;;23.70;48.45;101299.41;5006646;28;4142;-73
2023/06/08 00:26:16;;;;;;;;;;;;;;;23.68;48.33;101296.41;5007390;28;4091;-73
2023/06/08 00:28:46;;;;;;;;;;;;;;;23.68;48.35;101290.63;5000875;28;4021;-74
2023/06/08 00:31:13;;;;;;;;;;;;;;;23.68;48.36;101292.78;5004482;28;4209;-73
2023/06/08 00:33:40;;;;;;;;;;;;;;;23.68;48.43;101293.53;5015497;28;4141;-73
2023/06/08 00:36:07;;;;;;;;;;;;;;;23.68;48.32;101293.53;5013936;28;4314;-73
2023/06/08 00:38:34;;;;;;;;;;;;;;;23.67;48.58;101286.28;5003738;28;4064;-73
2023/06/08 00:41:02;;;;;;;;;;;;;;;23.65;48.57;101286.19;5013382;28;4139;-73
2023/06/08 00:43:29;;;;;;;;;;;;;;;23.67;48.30;101292.06;5005086;28;4179;-73
2023/06/08 00:45:55;;;;;;;;;;;;;;;23.67;48.42;101292.06;5003573;28;4346;-73
2023/06/08 00:48:22;;;;;;;;;;;;;;;23.66;48.33;101296.34;5004179;28;4071;-73
2023/06/08 00:50:50;;;;;;;;;;;;;;;23.67;48.49;101291.31;5001112;28;4200;-72
2023/06/08 00:53:16;;;;;;;;;;;;;;;23.66;48.49;101281.16;4997675;28;4167;-73
2023/06/08 00:55:46;;;;;;;;;;;;;;;23.65;48.49;101283.31;4995803;28;4241;-73
2023/06/08 00:58:16;;;;;;;;;;;;;;;23.65;48.55;101286.19;5007772;28;4140;-73
2023/06/08 01:00:42;;;;;;;;;;;;;;;23.65;48.60;101286.19;5002673;28;3977;-73
2023/06/08 01:03:10;;;;;;;;;;;;;;;23.64;48.43;101284.72;5001220;28;4475;-73
2023/06/08 01:05:38;;;;;;;;;;;;;;;23.65;48.35;101283.31;5001815;28;4186;-73
2023/06/08 01:08:19;;;;;;;;;;;;;;;23.65;48.31;101283.31;4999435;28;3983;-73
2023/06/08 01:10:57;;;;;;;;;;;;;;;23.64;48.45;101287.63;5001686;28;4236;-73
2023/06/08 01:13:29;;;;;;;;;;;;;;;23.63;48.37;101277.44;5007848;28;4187;-73
2023/06/08 01:16:00;;;;;;;;;;;;;;;23.64;48.31;101276.03;5011186;28;4057;-73
2023/06/08 01:18:26;;;;;;;;;;;;;;;23.64;48.23;101281.81;4992195;28;4099;-73
2023/06/08 01:21:14;;;;;;;;;;;;;;;23.63;48.61;101274.53;5005041;28;4194;-73
2023/06/08 01:23:49;;;;;;;;;;;;;;;23.64;48.32;101281.81;5005681;28;4047;-73
2023/06/08 01:26:18;;;;;;;;;;;;;;;23.63;48.31;101274.53;4999260;28;4621;-73
2023/06/08 01:28:48;;;;;;;;;;;;;;;23.62;48.42;101270.91;4996560;28;4022;-73
2023/06/08 01:31:14;;;;;;;;;;;;;;;23.62;48.46;101273.81;4998049;28;4152;-73
2023/06/08 01:33:41;;;;;;;;;;;;;;;23.62;48.44;101267.28;5019108;28;4116;-73
2023/06/08 01:36:20;;;;;;;;;;;;;;;23.61;48.31;101266.53;5004285;28;4161;-73
2023/06/08 01:38:59;;;;;;;;;;;;;;;23.61;48.33;101265.78;4996761;28;4174;-73
2023/06/08 01:41:27;;;;;;;;;;;;;;;23.62;48.29;101270.19;5002417;28;4096;-73
2023/06/08 01:43:53;;;;;;;;;;;;;;;23.61;48.56;101265.78;5000047;28;4012;-73
2023/06/08 01:46:21;;;;;;;;;;;;;;;23.61;48.46;101265.78;5004143;28;4197;-73
2023/06/08 01:48:47;;;;;;;;;;;;;;;23.61;48.30;101262.91;5001319;28;4180;-73
2023/06/08 01:51:14;;;;;;;;;;;;;;;23.62;48.16;101261.50;5005993;28;5182;-73
2023/06/08 01:53:41;;;;;;;;;;;;;;;23.61;48.26;101260.00;5000135;28;4321;-73
2023/06/08 01:56:07;;;;;;;;;;;;;;;23.60;48.34;101258.53;5002406;28;4074;-73
2023/06/08 01:58:34;;;;;;;;;;;;;;;23.61;48.37;101254.22;5010153;28;4570;-73
2023/06/08 02:01:00;;;;;;;;;;;;;;;23.60;48.43;101264.31;5002148;28;4088;-73
2023/06/08 02:03:27;;;;;;;;;;;;;;;23.58;48.37;101250.50;5004065;28;4134;-72
2023/06/08 02:05:53;;;;;;;;;;;;;;;23.59;48.18;101252.00;5006899;28;3946;-72
2023/06/08 02:08:20;;;;;;;;;;;;;;;23.58;48.31;101250.50;5001305;28;4090;-73
2023/06/08 02:10:47;;;;;;;;;;;;;;;23.59;48.46;101251.25;4996489;28;4079;-73
2023/06/08 02:13:13;;;;;;;;;;;;;;;23.58;48.51;101261.34;4997818;28;4242;-73
2023/06/08 02:15:40;;;;;;;;;;;;;;;23.58;48.37;101255.56;5013865;28;4218;-73
2023/06/08 02:18:06;;;;;;;;;;;;;;;23.58;48.28;101256.28;4996458;28;4045;-73
2023/06/08 02:20:33;;;;;;;;;;;;;;;23.57;48.30;101254.06;5002129;28;4302;-73
2023/06/08 02:23:00;;;;;;;;;;;;;;;23.57;48.45;101256.94;5002323;28;4070;-73
2023/06/08 02:25:27;;;;;;;;;;;;;;;23.57;48.28;101256.94;5002752;28;5185;-73
2023/06/08 02:27:53;;;;;;;;;;;;;;;23.56;48.43;101253.31;5005712;28;4307;-73
2023/06/08 02:30:20;;;;;;;;;;;;;;;23.56;48.38;101252.59;5010077;28;3937;-73
2023/06/08 02:32:47;;;;;;;;;;;;;;;23.56;48.44;101258.38;5003298;28;4359;-73
2023/06/08 02:35:13;;;;;;;;;;;;;;;23.55;48.60;101257.63;5003960;28;5201;-73
2023/06/08 02:37:43;;;;;;;;;;;;;;;23.55;48.24;101262.69;5006128;28;4046;-73
2023/06/08 02:40:10;;;;;;;;;;;;;;;23.55;48.40;101259.78;5010774;28;4310;-73
2023/06/08 02:42:38;;;;;;;;;;;;;;;23.55;48.33;101259.78;5005730;28;4206;-73
2023/06/08 02:45:07;;;;;;;;;;;;;;;23.55;48.22;101251.13;5001729;28;4175;-73
2023/06/08 02:47:34;;;;;;;;;;;;;;;23.55;48.35;101262.69;5006165;28;4125;-73
2023/06/08 02:50:00;;;;;;;;;;;;;;;23.54;48.19;101264.06;5001422;28;4450;-71
2023/06/08 02:52:29;;;;;;;;;;;;;;;23.53;48.38;101260.44;5004464;28;4104;-74
2023/06/08 02:54:56;;;;;;;;;;;;;;;23.53;48.16;101259.69;5007442;28;4211;-81
2023/06/08 02:57:22;;;;;;;;;;;;;;;23.53;48.11;101259.69;5009536;28;4250;-81
2023/06/08 02:59:53;;;;;;;;;;;;;;;23.52;48.41;101253.16;5004748;28;4034;-80
2023/06/08 03:02:21;;;;;;;;;;;;;;;23.53;48.25;101259.69;5002605;28;3955;-80
2023/06/08 03:04:47;;;;;;;;;;;;;;;23.52;48.12;101256.03;5006954;28;4254;-80
2023/06/08 03:07:15;;;;;;;;;;;;;;;23.52;48.09;101258.94;5010579;28;5392;-81
2023/06/08 03:09:48;;;;;;;;;;;;;;;23.52;48.12;101258.19;5004429;28;4008;-72
2023/06/08 03:12:18;;;;;;;;;;;;;;;23.52;48.26;101252.41;5004006;28;4335;-79
2023/06/08 03:14:48;;;;;;;;;;;;;;;23.50;48.30;101253.09;5002809;28;4142;-80
2023/06/08 03:17:17;;;;;;;;;;;;;;;23.49;48.39;101250.88;5008499;28;5997;-80
2023/06/08 03:19:44;;;;;;;;;;;;;;;23.50;48.38;101250.22;5013156;28;4545;-80
2023/06/08 03:22:10;;;;;;;;;;;;;;;23.49;48.26;101248.72;5010179;28;4191;-77
2023/06/08 03:24:49;;;;;;;;;;;;;;;23.24;48.47;101252.03;5001903;28;4139;-77
2023/06/08 03:27:17;;;;;;;;;;;;;;;23.15;48.37;101248.06;5011837;28;4203;-79
2023/06/08 03:29:47;;;;;;;;;;;;;;;23.08;47.90;101246.31;5007443;28;4906;-78
2023/06/08 03:32:14;;;;;;;;;;;;;;;23.25;47.28;101248.50;5011297;28;4137;-78
2023/06/08 03:34:44;;;;;;;;;;;;;;;23.25;46.96;101248.50;5010431;28;4050;-77
2023/06/08 03:37:11;;;;;;;;;;;;;;;23.28;46.58;101252.19;5007851;28;4399;-77
2023/06/08 03:39:39;;;;;;;;;;;;;;;23.28;46.45;101244.28;5006118;28;4113;-79
2023/06/08 03:42:05;;;;;;;;;;;;;;;23.13;46.78;101247.97;5001081;28;4071;-78
2023/06/08 03:44:36;;;;;;;;;;;;;;;23.14;46.48;101246.59;5002335;28;4348;-78
2023/06/08 03:47:02;;;;;;;;;;;;;;;22.97;46.52;101242.97;5003741;28;4137;-78
2023/06/08 03:49:32;;;;;;;;;;;;;;;23.06;46.49;101246.25;5007249;28;4369;-78
2023/06/08 03:51:59;;;;;;;;;;;;;;;23.00;46.54;101247.47;5007284;28;4023;-78
2023/06/08 03:54:25;;;;;;;;;;;;;;;23.07;46.45;101250.63;5005954;28;3997;-78
2023/06/08 03:56:52;;;;;;;;;;;;;;;23.07;46.27;101245.59;5009244;28;4200;-78
2023/06/08 03:59:19;;;;;;;;;;;;;;;22.96;46.38;101246.53;5011808;28;5335;-77
2023/06/08 04:01:46;;;;;;;;;;;;;;;23.04;46.29;101251.94;5008647;28;4147;-77
2023/06/08 04:04:13;;;;;;;;;;;;;;;23.09;45.94;101242.03;5007384;28;4156;-77
2023/06/08 04:06:40;;;;;;;;;;;;;;;23.06;46.12;101241.19;5012254;28;4520;-78
2023/06/08 04:09:08;;;;;;;;;;;;;;;22.93;46.11;101254.38;4990363;28;4188;-77
2023/06/08 04:11:35;;;;;;;;;;;;;;;22.90;46.32;101247.00;5012944;28;4185;-77
2023/06/08 04:14:02;;;;;;;;;;;;;;;22.92;46.55;101244.22;5016791;28;4072;-78
2023/06/08 04:16:28;;;;;;;;;;;;;;;22.87;46.43;101251.22;5005749;28;3948;-77
2023/06/08 04:18:57;;;;;;;;;;;;;;;22.86;46.38;101252.63;5008595;28;4125;-78
2023/06/08 04:21:26;;;;;;;;;;;;;;;22.89;46.22;101259.97;5003888;28;3952;-77
2023/06/08 04:23:58;;;;;;;;;;;;;;;22.93;46.43;101251.50;5010264;28;4104;-77
2023/06/08 04:26:28;;;;;;;;;;;;;;;22.94;46.28;101255.84;5006682;28;4108;-77
2023/06/08 04:28:55;;;;;;;;;;;;;;;22.92;46.67;101255.75;5011769;28;4120;-78
2023/06/08 04:31:26;;;;;;;;;;;;;;;22.98;46.54;101253.16;5006985;28;4890;-78
2023/06/08 04:33:53;;;;;;;;;;;;;;;22.95;46.62;101260.25;5007182;28;4451;-78
2023/06/08 04:36:21;;;;;;;;;;;;;;;23.04;46.58;101269.25;5019967;28;4233;-77
2023/06/08 04:38:49;;;;;;;;;;;;;;;22.98;46.77;101264.69;5006828;28;4108;-77
2023/06/08 04:41:18;;;;;;;;;;;;;;;22.94;46.86;101258.75;5014130;28;4016;-77
2023/06/08 04:43:49;;;;;;;;;;;;;;;23.00;46.74;101261.91;5008273;28;4065;-76
2023/06/08 04:46:19;;;;;;;;;;;;;;;22.80;47.13;101258.16;5009181;28;5472;-80
2023/06/08 04:48:45;;;;;;;;;;;;;;;22.15;46.78;101259.63;5006959;28;3972;-76
2023/06/08 04:51:12;;;;;;;;;;;;;;;21.63;47.52;101260.81;5009715;28;4074;-76
2023/06/08 04:53:38;;;;;;;;;;;;;;;21.51;47.71;101261.00;4994291;28;3940;-75
2023/06/08 04:56:05;;;;;;;;;;;;;;;21.28;48.24;101257.00;5002756;28;4123;-75
2023/06/08 04:58:32;;;;;;;;;;;;;;;21.41;48.29;101261.22;5003623;28;4070;-75
2023/06/08 05:00:58;;;;;;;;;;;;;;;21.34;48.24;101260.16;5009917;28;5005;-74
2023/06/08 05:03:28;;;;;;;;;;;;;;;21.37;48.55;101257.38;5009076;28;3994;-75
2023/06/08 05:05:55;;;;;;;;;;;;;;;21.26;48.40;101264.78;5003987;28;4094;-75
2023/06/08 05:08:22;;;;;;;;;;;;;;;21.36;48.57;101264.53;5001372;28;4041;-74
2023/06/08 05:10:48;;;;;;;;;;;;;;;21.22;48.71;101261.72;5005051;28;4256;-75
2023/06/08 05:13:15;;;;;;;;;;;;;;;21.15;49.17;101260.66;5012663;28;4290;-74
2023/06/08 05:15:41;;;;;;;;;;;;;;;21.09;49.05;101258.22;5008906;28;4216;-75
2023/06/08 05:18:07;;;;;;;;;;;;;;;21.13;48.93;101260.56;5004761;28;4117;-76
2023/06/08 05:20:34;;;;;;;;;;;;;;;21.07;49.03;101260.25;5006503;28;4032;-75
2023/06/08 05:23:00;;;;;;;;;;;;;;;20.99;49.51;101260.59;5005510;28;4689;-77
2023/06/08 05:25:29;;;;;;;;;;;;;;;21.04;49.57;101258.66;5012187;28;4059;-76
2023/06/08 05:27:55;;;;;;;;;;;;;;;20.98;49.82;101259.13;5006390;28;4318;-76
2023/06/08 05:30:22;;;;;;;;;;;;;;;20.98;49.93;101261.22;5007762;28;4064;-76
2023/06/08 05:32:48;;;;;;;;;;;;;;;21.01;50.23;101257.09;5002810;28;4130;-74
2023/06/08 05:35:15;;;;;;;;;;;;;;;21.00;50.25;101255.56;4998730;28;3956;-75
2023/06/08 05:37:41;;;;;;;;;;;;;;;21.07;49.70;101257.38;5002497;28;4177;-75
2023/06/08 05:40:09;;;;;;;;;;;;;;;21.13;49.93;101257.69;5000900;28;4128;-75
2023/06/08 05:42:35;;;;;;;;;;;;;;;21.13;49.85;101251.91;5011314;28;4143;-75
2023/06/08 05:45:02;;;;;;;;;;;;;;;21.17;49.55;101257.88;5003901;28;4175;-75
2023/06/08 05:47:28;;;;;;;;;;;;;;;21.24;49.16;101248.16;5006194;28;4161;-76
2023/06/08 05:50:00;;;;;;;;;;;;;;;21.25;48.38;101238.09;5002919;28;4296;-79
2023/06/08 05:52:27;;;;;;;;;;;;;;;21.36;48.64;101247.25;5005023;28;4302;-78
2023/06/08 05:54:53;;;;;;;;;;;;;;;21.47;48.67;101237.75;5005972;28;3985;-78
2023/06/08 05:57:20;;;;;;;;;;;;;;;21.56;47.63;101233.84;5003794;28;4178;-78
2023/06/08 05:59:46;;;;;;;;;;;;;;;21.55;45.99;101243.88;5010191;28;4019;-78
2023/06/08 06:02:13;;;;;;;;;;;;;;;21.55;45.09;101238.09;5004678;28;4264;-79
2023/06/08 06:04:40;;;;;;;;;;;;;;;21.61;44.82;101244.16;5006708;28;3981;-77
2023/06/08 06:07:07;;;;;;;;;;;;;;;21.53;44.08;101247.41;5004898;28;6421;-81
2023/06/08 06:09:34;;;;;;;;;;;;;;;21.68;43.92;101245.94;5011914;28;4106;-78
2023/06/08 06:12:01;;;;;;;;;;;;;;;21.72;43.60;101246.13;5006381;28;4200;-78
2023/06/08 06:14:27;;;;;;;;;;;;;;;21.77;43.81;101241.31;5011572;28;4384;-77
2023/06/08 06:16:54;;;;;;;;;;;;;;;21.90;44.20;101248.41;5003268;28;4294;-77
2023/06/08 06:19:36;;;;;;;;;;;;;;;21.91;43.41;101249.88;5002260;28;3893;-74
2023/06/08 06:22:06;;;;;;;;;;;;;;;21.92;42.81;101248.47;5008980;28;6131;-75
2023/06/08 06:24:33;;;;;;;;;;;;;;;22.01;42.56;101244.56;5003921;28;4522;-79
2023/06/08 06:27:00;;;;;;;;;;;;;;;22.07;42.40;101244.84;4999065;28;4272;-76
2023/06/08 06:29:26;;;;;;;;;;;;;;;22.00;41.86;101248.84;4989105;28;4202;-80
2023/06/08 06:31:53;;;;;;;;;;;;;;;22.09;42.05;101244.94;4992640;28;4036;-77
2023/06/08 06:34:20;;;;;;;;;;;;;;;22.11;42.00;101244.28;5002527;28;4369;-77
2023/06/08 06:36:46;;;;;;;;;;;;;;;22.16;41.43;101251.72;5005880;28;4471;-77
2023/06/08 06:39:13;;;;;;;;;;;;;;;22.20;41.09;101245.41;5000611;28;4167;-75
2023/06/08 06:41:39;;;;;;;;;;;;;;;22.31;40.94;101250.25;5005877;28;4039;-78
2023/06/08 06:44:07;;;;;;;;;;;;;;;22.37;41.40;101253.41;5001425;28;4198;-75
2023/06/08 06:46:34;;;;;;;;;;;;;;;22.44;41.32;101254.41;5003041;28;4331;-76
2023/06/08 06:49:00;;;;;;;;;;;;;;;22.42;41.56;101252.19;5001671;28;4042;-75
2023/06/08 06:51:27;;;;;;;;;;;;;;;22.51;41.52;101256.91;4994931;28;4427;-76
2023/06/08 06:53:53;;;;;;;;;;;;;;;22.97;41.38;101254.53;5002065;28;4246;-75
2023/06/08 06:56:20;;;;;;;;;;;;;;;23.05;40.89;101253.44;5002384;28;4199;-73
2023/06/08 06:58:46;;;;;;;;;;;;;;;23.22;40.90;101252.69;5004578;28;4016;-73
2023/06/08 07:01:14;;;;;;;;;;;;;;;23.38;41.25;101255.50;5001257;28;4206;-73
2023/06/08 07:03:43;;;;;;;;;;;;;;;23.39;40.13;101254.09;5005833;28;4210;-71
2023/06/08 07:06:10;;;;;;;;;;;;;;;23.42;40.29;101247.72;5003395;28;4204;-74
2023/06/08 07:08:36;;;;;;;;;;;;;;;23.46;39.70;101263.75;5004995;28;4211;-72
2023/06/08 07:11:03;;;;;;;;;;;;;;;23.25;40.49;101262.16;5001715;28;4180;-76
2023/06/08 07:13:29;;;;;;;;;;;;;;;23.44;40.62;101258.63;5004741;28;4055;-74
2023/06/08 07:15:56;;;;;;;;;;;;;;;23.55;40.17;101268.47;5000974;28;4215;-72
2023/06/08 07:18:22;;;;;;;;;;;;;;;23.54;40.06;101264.06;5003337;28;4133;-75
2023/06/08 07:20:49;;;;;;;;;;;;;;;23.54;39.78;101258.28;5003565;28;4337;-73
2023/06/08 07:23:16;;;;;;;;;;;;;;;23.49;39.61;101253.75;5009650;28;4213;-73
2023/06/08 07:26:02;;;;;;;;;;;;;;;23.60;39.49;101255.66;5018314;28;4113;-73
2023/06/08 07:28:53;;;;;;;;;;;;;;;23.66;40.25;101252.97;5004875;28;4232;-73
2023/06/08 07:31:20;;;;;;;;;;;;;;;23.73;39.93;101254.72;5006414;28;4111;-73
2023/06/08 07:33:46;;;;;;;;;;;;;;;23.80;40.47;101252.81;5008883;28;4146;-74
2023/06/08 07:36:13;;;;;;;;;;;;;;;23.79;40.08;101257.84;5009638;28;4173;-76
2023/06/08 07:38:40;;;;;;;;;;;;;;;23.74;40.02;101255.44;5012787;28;4347;-76
2023/06/08 07:41:06;;;;;;;;;;;;;;;23.81;40.27;101255.03;5010524;28;4117;-76
2023/06/08 07:43:32;;;;;;;;;;;;;;;23.80;39.60;101244.91;5014841;28;4104;-75
2023/06/08 07:45:59;;;;;;;;;;;;;;;23.66;38.91;101249.34;5003641;28;5062;-76
2023/06/08 07:48:25;;;;;;;;;;;;;;;23.60;39.33;101250.59;5004886;28;4534;-78
2023/06/08 07:50:52;;;;;;;;;;;;;;;23.76;39.15;101252.66;5005621;28;4445;-76
2023/06/08 07:53:20;;;;;;;;;;;;;;;23.59;39.56;101251.25;5003592;28;4272;-76
2023/06/08 07:55:46;;;;;;;;;;;;;;;23.45;38.57;101247.81;5024639;28;4668;-78
2023/06/08 07:58:13;;;;;;;;;;;;;;;23.71;38.48;101245.19;5006187;28;4015;-73
2023/06/08 08:00:40;;;;;;;;;;;;;;;23.83;38.62;101248.59;5014392;28;4015;-73
2023/06/08 08:03:06;;;;;;;;;;;;;;;24.09;38.21;101242.31;5011469;28;4123;-74
2023/06/08 08:05:33;;;;;;;;;;;;;;;24.06;39.47;101238.63;5008212;28;4158;-74
2023/06/08 08:08:00;;;;;;;;;;;;;;;24.03;39.07;101242.84;5010577;28;4168;-76
2023/06/08 08:10:26;;;;;;;;;;;;;;;23.90;37.61;101238.75;5007157;28;4132;-73
2023/06/08 08:12:53;;;;;;;;;;;;;;;24.08;37.94;101232.91;5003443;28;4008;-73
2023/06/08 08:15:21;;;;;;;;;;;;;;;24.05;37.43;101237.13;5003693;28;4085;-73
2023/06/08 08:17:48;;;;;;;;;;;;;;;23.97;37.91;101225.25;5008575;28;4116;-75
2023/06/08 08:20:15;;;;;;;;;;;;;;;24.06;38.60;101235.72;5009428;28;5317;-73
2023/06/08 08:22:41;;;;;;;;;;;;;;;24.21;38.32;101229.06;5007214;28;4237;-73
2023/06/08 08:25:08;;;;;;;;;;;;;;;23.98;37.92;101229.63;5007880;28;3948;-79
2023/06/08 08:27:34;;;;;;;;;;;;;;;23.85;38.39;101230.59;5009288;28;4231;-86
2023/06/08 08:30:01;;;;;;;;;;;;;;;23.73;39.22;101220.00;5010763;28;4151;-83
2023/06/08 08:32:28;;;;;;;;;;;;;;;23.67;39.33;101228.44;5017571;28;4280;-85
2023/06/08 08:34:55;;;;;;;;;;;;;;;23.61;39.55;101225.31;5009824;28;4957;-90
2023/06/08 08:37:21;;;;;;;;;;;;;;;23.59;39.87;101231.78;5006827;28;4247;-86
2023/06/08 08:39:47;;;;;;;;;;;;;;;23.57;40.18;101236.72;5008095;28;4360;-86
2023/06/08 08:42:15;;;;;;;;;;;;;;;23.59;40.17;101228.13;5011248;28;4207;-89
2023/06/08 08:44:42;;;;;;;;;;;;;;;23.80;40.76;101227.53;5014251;28;4120;-78
2023/06/08 08:47:10;;;;;;;;;;;;;;;23.90;40.84;101220.66;5017113;28;4052;-78
2023/06/08 08:49:40;;;;;;;;;;;;;;;23.95;40.65;101225.19;5011746;28;4531;-74
2023/06/08 08:52:08;;;;;;;;;;;;;;;24.10;40.97;101230.09;5008181;28;4897;-76
2023/06/08 08:54:35;;;;;;;;;;;;;;;24.03;41.05;101229.13;5011098;28;4386;-70
2023/06/08 08:57:02;;;;;;;;;;;;;;;24.19;41.09;101220.28;5003264;28;4783;-70
2023/06/08 08:59:32;;;;;;;;;;;;;;;24.24;40.91;101230.59;5007049;28;4209;-70
2023/06/08 09:01:58;;;;;;;;;;;;;;;24.07;41.19;101216.94;5004555;28;4288;-70
2023/06/08 09:04:25;;;;;;;;;;;;;;;24.27;41.38;101222.72;5008242;28;3957;-72
2023/06/08 09:06:52;;;;;;;;;;;;;;;24.34;41.51;101220.81;5006223;28;3971;-73
2023/06/08 09:09:22;;;;;;;;;;;;;;;24.44;41.38;101218.25;5002039;28;4060;-74
2023/06/08 09:11:58;;;;;;;;;;;;;;;24.51;41.15;101214.22;5013238;28;4044;-71
2023/06/08 09:14:25;;;;;;;;;;;;;;;24.60;41.13;101209.41;5011424;28;4564;-74
2023/06/08 09:16:52;;;;;;;;;;;;;;;24.64;41.35;101213.19;5015795;28;3926;-74
2023/06/08 09:19:19;;;;;;;;;;;;;;;24.55;41.36;101216.50;5009068;28;4129;-71
2023/06/08 09:21:46;;;;;;;;;;;;;;;24.54;41.77;101209.97;5006172;28;4030;-72
2023/06/08 09:24:14;;;;;;;;;;;;;;;24.53;41.90;101205.56;5008038;28;4215;-72
2023/06/08 09:26:45;;;;;;;;;;;;;;;24.56;41.69;101215.81;5008392;28;4021;-76
2023/06/08 09:29:12;;;;;;;;;;;;;;;24.58;41.67;101213.00;5012604;28;4016;-71
2023/06/08 09:31:48;;;;;;;;;;;;;;;24.60;41.70;101204.38;5010802;28;4181;-71
2023/06/08 09:34:15;;;;;;;;;;;;;;;24.68;41.81;101206.81;5010194;28;4047;-75
2023/06/08 09:36:43;;;;;;;;;;;;;;;24.58;41.69;101207.22;5002100;28;4028;-70
2023/06/08 09:39:10;;;;;;;;;;;;;;;24.25;42.40;101206.03;5005923;28;4163;-70
2023/06/08 09:41:37;;;;;;;;;;;;;;;24.23;42.76;101205.97;5011804;28;4170;-70
2023/06/08 09:44:17;;;;;;;;;;;;;;;24.16;43.27;101201.34;5014865;28;4110;-70
2023/06/08 09:46:47;;;;;;;;;;;;;;;24.13;42.98;101205.59;5018264;28;4031;-70
2023/06/08 09:49:14;;;;;;;;;;;;;;;24.12;43.40;101200.47;5015891;28;4161;-72
2023/06/08 09:51:51;;;;;;;;;;;;;;;24.30;42.95;101183.03;5006834;28;4043;-68
2023/06/08 09:54:21;;;;;;;;;;;;;;;24.47;42.63;101193.81;5008193;28;3940;-71
2023/06/08 09:56:53;;;;;;;;;;;;;;;24.63;42.39;101187.81;5014968;28;4285;-69
2023/06/08 09:59:20;;;;;;;;;;;;;;;24.71;42.21;101198.94;5017614;28;4418;-69
2023/06/08 10:01:48;;;;;;;;;;;;;;;24.73;42.09;101193.22;5012568;28;4221;-69
2023/06/08 10:04:31;;;;;;;;;;;;;;;24.66;42.53;101186.47;5008132;28;4372;-74
2023/06/08 10:07:06;;;;;;;;;;;;;;;24.66;42.51;101189.38;5006512;28;4107;-73
2023/06/08 10:09:34;;;;;;;;;;;;;;;24.74;42.71;101197.56;5010818;28;4002;-72
2023/06/08 10:12:00;;;;;;;;;;;;;;;24.75;42.10;101182.44;5011106;28;4201;-75
2023/06/08 10:14:27;;;;;;;;;;;;;;;24.71;42.54;101184.44;5009513;28;4325;-76
2023/06/08 10:16:54;;;;;;;;;;;;;;;24.73;42.58;101193.22;5006857;28;4381;-77
2023/06/08 10:19:20;;;;;;;;;;;;;;;24.71;42.60;101182.28;5015534;28;4212;-78
2023/06/08 10:21:48;;;;;;;;;;;;;;;24.75;43.19;101179.53;5011659;28;4068;-72
2023/06/08 10:24:15;;;;;;;;;;;;;;;24.78;42.82;101177.44;5013246;28;4893;-71
2023/06/08 10:26:41;;;;;;;;;;;;;;;24.79;42.72;101173.88;5012168;28;4241;-77
2023/06/08 10:29:08;;;;;;;;;;;;;;;24.80;42.81;101186.22;4998206;28;4235;-78
2023/06/08 10:31:38;;;;;;;;;;;;;;;24.61;42.60;101179.81;5004249;28;4034;-74
2023/06/08 10:34:08;;;;;;;;;;;;;;;24.34;43.17;101175.22;5004811;28;4200;-73
2023/06/08 10:36:36;;;;;;;;;;;;;;;24.40;43.45;101168.91;5003069;28;4043;-71
2023/06/08 10:39:06;;;;;;;;;;;;;;;24.40;43.58;101166.75;5008142;28;4087;-73
2023/06/08 10:41:36;;;;;;;;;;;;;;;24.39;43.74;101168.16;5008851;28;4341;-71
2023/06/08 10:44:03;;;;;;;;;;;;;;;24.30;43.56;101165.66;5007164;28;4271;-72
2023/06/08 10:46:42;;;;;;;;;;;;;;;24.43;43.86;101158.88;5007971;28;5067;-73
2023/06/08 10:49:08;;;;;;;;;;;;;;;24.29;43.49;101158.41;5006414;28;4200;-71
2023/06/08 10:51:40;;;;;;;;;;;;;;;24.67;43.35;101159.75;5010150;28;4116;-71
2023/06/08 10:54:09;;;;;;;;;;;;;;;24.53;43.18;101155.63;5007836;28;4213;-78
2023/06/08 10:56:41;;;;;;;;;;;;;;;24.35;43.29;101153.56;5010919;28;4083;-72
2023/06/08 10:59:08;;;;;;;;;;;;;;;24.49;43.82;101143.91;5007497;28;4199;-73
2023/06/08 11:01:34;;;;;;;;;;;;;;;24.49;43.71;101153.34;5011071;28;5028;-78
2023/06/08 11:04:01;;;;;;;;;;;;;;;24.39;43.90;101161.63;5019542;28;5252;-76
2023/06/08 11:06:35;;;;;;;;;;;;;;;24.35;44.07;101152.81;5013539;28;4701;-78
2023/06/08 11:09:03;;;;;;;;;;;;;;;24.29;43.95;101143.94;5009548;28;4228;-76
2023/06/08 11:11:30;;;;;;;;;;;;;;;24.31;43.84;101135.31;4993505;28;4076;-76
2023/06/08 11:13:56;;;;;;;;;;;;;;;24.30;44.04;101142.50;5007218;28;5401;-71
2023/06/08 11:16:23;;;;;;;;;;;;;;;24.30;44.03;101125.16;5009157;28;4591;-71
2023/06/08 11:18:51;;;;;;;;;;;;;;;24.29;44.08;101126.56;5003687;28;5236;-71
2023/06/08 11:21:21;;;;;;;;;;;;;;;24.29;44.12;101132.34;5002624;28;4103;-71
2023/06/08 11:23:48;;;;;;;;;;;;;;;24.29;44.31;101124.41;5009349;28;4167;-74
2023/06/08 11:26:14;;;;;;;;;;;;;;;24.30;44.29;101125.16;5008240;28;5256;-74
2023/06/08 11:28:43;;;;;;;;;;;;;;;24.30;44.38;101113.56;5018041;28;4665;-79
2023/06/08 11:31:10;;;;;;;;;;;;;;;24.33;44.71;101115.88;5013741;28;4687;-74
2023/06/08 11:33:47;;;;;;;;;;;;;;;24.32;44.99;101117.28;5009262;28;3930;-74
2023/06/08 11:36:13;;;;;;;;;;;;;;;24.54;44.70;101107.91;5009423;28;4392;-68
2023/06/08 11:38:40;;;;;;;;;;;;;;;24.67;44.73;101110.53;5005954;28;5061;-75
2023/06/08 11:41:09;;;;;;;;;;;;;;;24.73;45.82;101107.06;5005986;28;5117;-76
2023/06/08 11:43:35;;;;;;;;;;;;;;;24.81;45.19;101089.97;5012543;28;4059;-74
2023/06/08 11:46:02;;;;;;;;;;;;;;;24.91;45.70;101098.22;5007662;28;4077;-79
2023/06/08 11:48:28;;;;;;;;;;;;;;;25.11;45.11;101088.69;5013459;28;3980;-80
2023/06/08 11:50:55;;;;;;;;;;;;;;;25.27;45.04;101089.22;5008268;28;4051;-73
2023/06/08 11:53:22;;;;;;;;;;;;;;;25.25;44.68;101083.34;5007964;28;4046;-73
2023/06/08 11:55:51;;;;;;;;;;;;;;;25.19;44.78;101091.84;5008160;28;4200;-75
2023/06/08 11:58:17;;;;;;;;;;;;;;;25.22;44.90;101081.78;5008608;28;4081;-75
2023/06/08 12:00:45;;;;;;;;;;;;;;;25.18;44.63;101087.47;5006017;28;3969;-72
2023/06/08 12:03:11;;;;;;;;;;;;;;;24.97;45.61;101086.06;5014235;28;5238;-75
2023/06/08 12:05:38;;;;;;;;;;;;;;;24.88;45.95;101088.00;5005010;28;4062;-73
2023/06/08 12:08:05;;;;;;;;;;;;;;;25.21;45.53;101089.00;5006629;28;4095;-74
2023/06/08 12:10:32;;;;;;;;;;;;;;;25.41;44.80;101086.72;5005606;28;4037;-79
2023/06/08 12:13:08;;;;;;;;;;;;;;;25.00;45.12;101082.56;5003460;28;4127;-74
2023/06/08 12:15:36;;;;;;;;;;;;;;;24.91;45.74;101089.53;5006281;28;4554;-76
2023/06/08 12:18:02;;;;;;;;;;;;;;;24.98;45.83;101088.31;5008052;28;4162;-75
2023/06/08 12:20:35;;;;;;;;;;;;;;;24.87;46.23;101077.81;5007651;28;4026;-74
2023/06/08 12:23:01;;;;;;;;;;;;;;;24.80;46.39;101074.00;5008175;28;4017;-78
2023/06/08 12:25:28;;;;;;;;;;;;;;;24.82;45.90;101058.84;5007364;28;4027;-74
2023/06/08 12:27:55;;;;;;;;;;;;;;;24.88;45.71;101062.66;5008313;28;4280;-77
2023/06/08 12:30:23;;;;;;;;;;;;;;;25.14;45.36;101064.16;5014236;28;4120;-76
2023/06/08 12:32:50;;;;;;;;;;;;;;;25.25;45.22;101065.97;5007539;28;4049;-75
2023/06/08 12:35:16;;;;;;;;;;;;;;;25.28;45.41;101058.78;5007343;28;3936;-76
2023/06/08 12:37:43;;;;;;;;;;;;;;;25.32;45.15;101055.28;5010037;28;3967;-74
2023/06/08 12:40:10;;;;;;;;;;;;;;;25.36;45.54;101037.97;5011949;28;4455;-76
2023/06/08 12:42:36;;;;;;;;;;;;;;;25.40;45.52;101044.63;5008572;28;4367;-78
2023/06/08 12:45:03;;;;;;;;;;;;;;;25.42;45.39;101047.59;5006922;28;4253;-76
2023/06/08 12:47:30;;;;;;;;;;;;;;;25.40;45.02;101046.81;5007348;28;4146;-78
2023/06/08 12:49:56;;;;;;;;;;;;;;;25.40;45.00;101041.75;5009573;28;4436;-75
2023/06/08 12:52:23;;;;;;;;;;;;;;;25.05;45.82;101046.50;5006119;28;3992;-71